createdAt,value
2018-09-28T00:02:19.119Z,3.57
2018-09-28T00:07:21.819Z,3.87
2018-09-28T00:12:24.328Z,3.73
2018-09-28T00:17:26.839Z,4.30
2018-09-28T00:22:29.367Z,5.10
2018-09-28T00:27:31.884Z,6.07
2018-09-28T00:32:34.424Z,5.60
2018-09-28T00:37:36.948Z,4.03
2018-09-28T00:42:39.493Z,5.30
2018-09-28T00:47:42.084Z,4.37
2018-09-28T00:52:44.635Z,6.50
2018-09-28T00:57:47.145Z,4.97
2018-09-28T01:02:49.692Z,4.63
2018-09-28T01:07:52.791Z,7.63
2018-09-28T01:12:56.039Z,4.17
2018-09-28T01:17:58.570Z,5.07
2018-09-28T01:23:01.096Z,4.90
2018-09-28T01:28:03.635Z,5.83
2018-09-28T01:33:06.188Z,7.80
2018-09-28T01:38:08.719Z,5.30
2018-09-28T01:43:11.253Z,5.70
2018-09-28T01:48:13.783Z,6.90
2018-09-28T01:53:16.333Z,5.80
2018-09-28T01:58:18.844Z,5.47
2018-09-28T02:03:21.347Z,6.80
2018-09-28T02:08:23.903Z,5.97
2018-09-28T02:13:26.428Z,6.47
2018-09-28T02:18:28.943Z,6.07
2018-09-28T02:23:31.492Z,9.07
2018-09-28T02:28:33.958Z,8.67
2018-09-28T02:33:36.495Z,5.77
2018-09-28T02:38:39.011Z,5.20
2018-09-28T02:43:41.549Z,5.97
2018-09-28T02:48:44.096Z,4.70
2018-09-28T02:53:46.595Z,6.40
2018-09-28T02:58:49.104Z,5.67
2018-09-28T03:03:51.636Z,5.70
2018-09-28T03:08:54.152Z,7.37
2018-09-28T03:13:56.689Z,9.87
2018-09-28T03:18:59.224Z,7.37
2018-09-28T03:24:01.751Z,5.80
2018-09-28T03:29:04.287Z,5.30
2018-09-28T03:34:06.859Z,5.83
2018-09-28T03:39:09.382Z,5.57
2018-09-28T03:44:11.894Z,7.33
2018-09-28T03:49:14.395Z,6.03
2018-09-28T03:54:16.946Z,6.90
2018-09-28T03:59:19.480Z,6.10
2018-09-28T04:04:21.984Z,5.00
2018-09-28T04:09:24.532Z,8.27
2018-09-28T04:14:27.056Z,7.17
2018-09-28T04:19:29.568Z,8.03
2018-09-28T04:24:32.382Z,8.07
2018-09-28T04:29:34.900Z,9.13
2018-09-28T04:34:37.428Z,7.93
2018-09-28T04:39:39.952Z,8.07
2018-09-28T04:44:42.487Z,9.23
2018-09-28T04:49:45.024Z,10.37
2018-09-28T04:54:47.576Z,7.50
2018-09-28T04:59:50.134Z,12.93
2018-09-28T05:04:52.660Z,11.33
2018-09-28T05:09:55.194Z,8.83
2018-09-28T05:14:57.711Z,11.67
2018-09-28T05:20:00.227Z,8.60
2018-09-28T05:25:04.875Z,11.37
2018-09-28T05:30:07.476Z,8.27
2018-09-28T05:35:10.052Z,8.03
2018-09-28T05:40:12.579Z,7.83
2018-09-28T05:45:15.145Z,7.07
2018-09-28T05:50:17.676Z,5.73
2018-09-28T05:55:20.258Z,7.63
2018-09-28T06:00:28.457Z,9.03
2018-09-28T06:05:32.646Z,7.13
2018-09-28T06:10:35.477Z,7.83
2018-09-28T06:15:38.047Z,10.43
2018-09-28T06:20:40.594Z,6.70
2018-09-28T06:25:43.280Z,7.67
2018-09-28T06:30:45.859Z,6.83
2018-09-28T06:35:48.456Z,7.00
2018-09-28T06:40:50.967Z,8.23
2018-09-28T06:45:53.624Z,7.43
2018-09-28T06:50:56.259Z,7.90
2018-09-28T06:55:58.786Z,7.53
2018-09-28T07:01:01.308Z,10.90
2018-09-28T07:06:03.956Z,11.30
2018-09-28T07:11:07.114Z,17.37
2018-09-28T07:16:09.685Z,12.57
2018-09-28T07:21:12.246Z,18.57
2018-09-28T07:26:14.796Z,17.00
2018-09-28T07:31:17.368Z,11.60
2018-09-28T07:36:20.520Z,11.00
2018-09-28T07:41:22.943Z,10.67
2018-09-28T07:46:25.540Z,11.00
2018-09-28T07:51:28.078Z,12.10
2018-09-28T07:56:31.263Z,10.03
2018-09-28T08:01:33.762Z,9.93
2018-09-28T08:06:36.278Z,11.97
2018-09-28T08:11:38.822Z,10.47
2018-09-28T08:16:41.366Z,8.00
2018-09-28T08:21:43.919Z,6.83
2018-09-28T08:26:46.426Z,7.33
2018-09-28T08:31:49.483Z,8.47
2018-09-28T08:36:52.088Z,6.72
2018-09-28T08:41:54.607Z,5.87
2018-09-28T08:46:58.181Z,5.63
2018-09-28T08:52:00.715Z,11.20
2018-09-28T08:57:03.265Z,12.90
2018-09-28T09:02:07.376Z,11.20
2018-09-28T09:07:09.822Z,6.90
2018-09-28T09:12:12.358Z,7.80
2018-09-28T09:17:14.902Z,4.83
2018-09-28T09:22:17.448Z,4.93
2018-09-28T09:27:20.699Z,8.97
2018-09-28T09:32:23.266Z,6.70
2018-09-28T09:37:25.823Z,7.10
2018-09-28T09:42:28.386Z,6.27
2018-09-28T09:47:30.903Z,4.27
2018-09-28T09:52:33.423Z,6.63
2018-09-28T09:57:36.609Z,8.37
2018-09-28T10:02:44.793Z,6.67
2018-09-28T10:07:47.352Z,8.43
2018-09-28T10:12:49.974Z,4.87
2018-09-28T10:17:52.450Z,5.03
2018-09-28T10:22:55.032Z,8.13
2018-09-28T10:27:57.945Z,8.50
2018-09-28T10:33:00.507Z,7.97
2018-09-28T10:38:03.740Z,5.97
2018-09-28T10:43:06.351Z,7.23
2018-09-28T10:48:08.901Z,7.33
2018-09-28T10:53:11.522Z,6.63
2018-09-28T10:58:14.633Z,3.73
2018-09-28T11:03:17.187Z,6.13
2018-09-28T11:08:19.807Z,5.70
2018-09-28T11:13:22.296Z,9.33
2018-09-28T11:18:24.822Z,4.83
2018-09-28T11:23:27.388Z,3.53
2018-09-28T11:28:29.928Z,8.27
2018-09-28T11:33:32.519Z,7.73
2018-09-28T11:38:35.116Z,5.93
2018-09-28T11:43:37.698Z,7.23
2018-09-28T11:48:40.230Z,5.57
2018-09-28T11:53:42.769Z,5.17
2018-09-28T11:58:45.290Z,7.83
2018-09-28T12:03:47.941Z,3.60
2018-09-28T12:08:50.444Z,8.37
2018-09-28T12:13:53.007Z,6.33
2018-09-28T12:18:55.580Z,5.87
2018-09-28T12:23:58.151Z,5.33
2018-09-28T12:29:00.897Z,7.23
2018-09-28T12:34:03.452Z,5.30
2018-09-28T12:39:07.599Z,4.75
2018-09-28T12:44:10.159Z,5.90
2018-09-28T12:49:12.659Z,5.58
2018-09-28T12:54:15.245Z,4.07
2018-09-28T12:59:17.722Z,5.40
2018-09-28T13:04:20.298Z,5.58
2018-09-28T13:09:22.827Z,5.35
2018-09-28T13:14:25.446Z,4.00
2018-09-28T13:19:27.918Z,4.67
2018-09-28T13:24:30.495Z,6.53
2018-09-28T13:29:33.032Z,5.37
2018-09-28T13:34:35.566Z,6.08
2018-09-28T13:39:38.116Z,5.28
2018-09-28T13:44:40.704Z,7.17
2018-09-28T13:49:43.207Z,3.42
2018-09-28T13:54:45.754Z,4.97
2018-09-28T13:59:48.272Z,6.47
2018-09-28T14:04:50.861Z,7.97
2018-09-28T14:09:54.021Z,6.70
2018-09-28T14:14:56.646Z,3.45
2018-09-28T14:19:59.204Z,4.72
2018-09-28T14:25:01.764Z,3.30
2018-09-28T14:30:04.398Z,6.00
2018-09-28T14:35:06.972Z,3.42
2018-09-28T14:40:10.417Z,5.50
2018-09-28T14:45:12.931Z,3.87
2018-09-28T14:50:15.576Z,4.22
2018-09-28T14:55:18.220Z,4.05
2018-09-28T15:00:20.927Z,3.12
2018-09-28T15:05:23.421Z,3.83
2018-09-28T15:10:26.012Z,2.97
2018-09-28T15:15:28.557Z,3.50
2018-09-28T15:20:31.049Z,3.03
2018-09-28T15:25:33.600Z,3.40
2018-09-28T15:30:36.131Z,3.17
2018-09-28T15:35:38.651Z,3.73
2018-09-28T15:40:41.239Z,5.67
2018-09-28T15:45:43.800Z,3.53
2018-09-28T15:50:46.327Z,4.40
2018-09-28T15:55:48.875Z,4.90
2018-09-28T16:00:51.419Z,8.73
2018-09-28T16:05:54.030Z,6.70
2018-09-28T16:10:56.554Z,5.77
2018-09-28T16:15:59.123Z,6.83
2018-09-28T16:21:01.735Z,7.37
2018-09-28T16:26:04.592Z,7.10
2018-09-28T16:31:07.116Z,6.13
2018-09-28T16:36:09.701Z,8.83
2018-09-28T16:41:12.211Z,7.67
2018-09-28T16:46:14.745Z,9.57
2018-09-28T16:51:17.244Z,8.63
2018-09-28T16:56:19.754Z,5.63
2018-09-28T17:01:22.292Z,5.07
2018-09-28T17:06:25.499Z,4.50
2018-09-28T17:11:28.015Z,9.90
2018-09-28T17:16:30.535Z,5.07
2018-09-28T17:21:33.086Z,3.87
2018-09-28T17:26:35.615Z,5.60
2018-09-28T17:31:38.148Z,4.83
2018-09-28T17:36:40.676Z,4.00
2018-09-28T17:41:43.215Z,4.13
2018-09-28T17:46:45.783Z,8.40
2018-09-28T17:51:48.324Z,4.70
2018-09-28T17:56:50.916Z,9.77
2018-09-28T18:01:53.483Z,6.97
2018-09-28T18:06:56.037Z,6.27
2018-09-28T18:11:58.590Z,8.00
2018-09-28T18:17:01.248Z,6.30
2018-09-28T18:22:03.938Z,8.83
2018-09-28T18:27:06.856Z,17.37
2018-09-28T18:32:09.423Z,11.23
2018-09-28T18:37:12.192Z,7.20
2018-09-28T18:42:14.991Z,8.47
2018-09-28T18:47:17.726Z,9.87
2018-09-28T18:52:20.256Z,11.27
2018-09-28T18:57:22.812Z,13.17
2018-09-28T19:02:25.394Z,14.23
2018-09-28T19:07:27.952Z,16.97
2018-09-28T19:12:30.549Z,10.70
2018-09-28T19:17:33.100Z,10.00
2018-09-28T19:22:35.670Z,9.07
2018-09-28T19:27:38.182Z,6.63
2018-09-28T19:32:40.707Z,5.87
2018-09-28T19:37:43.240Z,4.47
2018-09-28T19:42:45.777Z,9.43
2018-09-28T19:47:48.302Z,6.83
2018-09-28T19:52:50.854Z,12.43
2018-09-28T19:57:53.460Z,8.07
2018-09-28T20:02:55.982Z,10.30
2018-09-28T20:07:58.506Z,10.67
2018-09-28T20:13:01.032Z,7.57
2018-09-28T20:18:03.557Z,9.53
2018-09-28T20:23:06.155Z,11.00
2018-09-28T20:28:08.667Z,11.20
2018-09-28T20:33:11.257Z,11.57
2018-09-28T20:38:13.788Z,14.40
2018-09-28T20:43:16.356Z,13.60
2018-09-28T20:48:18.941Z,13.60
2018-09-28T20:53:21.479Z,14.77
2018-09-28T20:58:24.016Z,17.10
2018-09-28T21:03:26.549Z,14.97
2018-09-28T21:08:29.056Z,13.80
2018-09-28T21:13:31.623Z,13.60
2018-09-28T21:18:36.349Z,12.07
2018-09-28T21:23:38.919Z,12.80
2018-09-28T21:28:41.432Z,17.77
2018-09-28T21:33:43.983Z,14.47
2018-09-28T21:38:47.072Z,13.97
2018-09-28T21:43:49.620Z,19.80
2018-09-28T21:48:52.189Z,19.37
2018-09-28T21:53:54.810Z,18.43
2018-09-28T21:58:57.355Z,18.80
2018-09-28T22:03:59.894Z,25.70
2018-09-28T22:09:02.611Z,20.40
2018-09-28T22:14:05.900Z,20.57
2018-09-28T22:19:08.411Z,22.53
2018-09-28T22:24:11.002Z,24.73
2018-09-28T22:29:13.547Z,27.87
2018-09-28T22:34:16.099Z,26.00
2018-09-28T22:39:18.747Z,23.83
2018-09-28T22:44:21.748Z,22.50
2018-09-28T22:49:25.483Z,18.67
2018-09-28T22:54:28.006Z,20.67
2018-09-28T22:59:30.535Z,16.03
2018-09-28T23:04:33.086Z,14.47
2018-09-28T23:09:35.643Z,15.03
2018-09-28T23:14:38.172Z,16.70
2018-09-28T23:19:40.701Z,12.07
2018-09-28T23:24:43.224Z,10.90
2018-09-28T23:29:45.783Z,13.40
2018-09-28T23:34:48.312Z,11.27
2018-09-28T23:39:50.830Z,7.33
2018-09-28T23:44:53.350Z,7.70
2018-09-28T23:49:55.899Z,8.23
2018-09-28T23:54:58.427Z,9.70
